createdAt,value
2019-06-27T00:00:06.564Z,0.10
2019-06-27T00:01:06.552Z,0.10
2019-06-27T00:02:06.545Z,0.10
2019-06-27T00:03:06.539Z,0.10
2019-06-27T00:04:06.543Z,0.10
2019-06-27T00:05:06.535Z,0.00
2019-06-27T00:06:06.534Z,0.10
2019-06-27T00:07:06.525Z,0.10
2019-06-27T00:08:06.523Z,0.10
2019-06-27T00:09:06.517Z,0.10
2019-06-27T00:10:06.514Z,0.10
2019-06-27T00:11:06.504Z,0.10
2019-06-27T00:12:06.505Z,0.10
2019-06-27T00:13:06.500Z,0.10
2019-06-27T00:14:06.502Z,0.00
2019-06-27T00:15:06.489Z,0.10
2019-06-27T00:16:06.483Z,0.10
2019-06-27T00:17:06.655Z,0.10
2019-06-27T00:18:06.478Z,0.10
2019-06-27T00:19:06.469Z,0.10
2019-06-27T00:20:06.463Z,0.10
2019-06-27T00:21:06.464Z,0.10
2019-06-27T00:22:06.456Z,0.00
2019-06-27T00:23:06.453Z,0.10
2019-06-27T00:24:06.452Z,0.10
2019-06-27T00:25:06.445Z,0.10
2019-06-27T00:26:06.438Z,0.10
2019-06-27T00:27:06.435Z,0.10
2019-06-27T00:28:06.430Z,0.10
2019-06-27T00:29:06.430Z,0.10
2019-06-27T00:30:06.414Z,0.10
2019-06-27T00:31:06.429Z,0.10
2019-06-27T00:32:06.412Z,0.10
2019-06-27T00:33:06.411Z,0.10
2019-06-27T00:34:06.408Z,0.10
2019-06-27T00:35:06.399Z,0.10
2019-06-27T00:36:06.401Z,0.10
2019-06-27T00:37:06.394Z,0.10
2019-06-27T00:38:06.381Z,0.10
2019-06-27T00:39:06.381Z,0.10
2019-06-27T00:40:06.378Z,0.10
2019-06-27T00:41:06.374Z,0.10
2019-06-27T00:42:06.383Z,0.10
2019-06-27T00:43:06.359Z,0.10
2019-06-27T00:44:06.357Z,0.10
2019-06-27T00:45:06.353Z,0.10
2019-06-27T00:46:06.354Z,0.10
2019-06-27T00:47:06.350Z,0.10
2019-06-27T00:48:06.339Z,0.10
2019-06-27T00:49:06.335Z,0.10
2019-06-27T00:50:06.330Z,0.10
2019-06-27T00:51:06.329Z,0.10
2019-06-27T00:52:06.324Z,0.10
2019-06-27T00:53:06.320Z,0.10
2019-06-27T00:54:06.326Z,0.10
2019-06-27T00:55:06.314Z,0.10
2019-06-27T00:56:06.389Z,0.10
2019-06-27T00:57:13.919Z,0.10
2019-06-27T00:58:06.294Z,0.10
2019-06-27T00:59:06.290Z,0.10
2019-06-27T01:00:06.288Z,0.10
2019-06-27T01:01:06.280Z,0.10
2019-06-27T01:02:06.276Z,0.10
2019-06-27T01:03:06.277Z,0.10
2019-06-27T01:04:06.273Z,0.10
2019-06-27T01:05:06.265Z,0.10
2019-06-27T01:06:06.255Z,0.10
2019-06-27T01:07:06.258Z,0.10
2019-06-27T01:08:06.251Z,0.10
2019-06-27T01:09:06.248Z,0.10
2019-06-27T01:10:06.236Z,0.10
2019-06-27T01:11:06.236Z,0.10
2019-06-27T01:12:06.230Z,0.10
2019-06-27T01:13:06.228Z,0.10
2019-06-27T01:14:06.222Z,0.10
2019-06-27T01:15:06.214Z,0.10
2019-06-27T01:16:06.209Z,0.10
2019-06-27T01:17:06.243Z,0.10
2019-06-27T01:18:06.212Z,0.10
2019-06-27T01:19:06.195Z,0.10
2019-06-27T01:20:06.191Z,0.20
2019-06-27T01:21:06.187Z,0.10
2019-06-27T01:22:06.182Z,0.10
2019-06-27T01:23:06.225Z,0.10
2019-06-27T01:24:06.176Z,0.10
2019-06-27T01:25:06.176Z,0.10
2019-06-27T01:26:06.168Z,0.10
2019-06-27T01:27:06.165Z,0.10
2019-06-27T01:28:06.156Z,0.10
2019-06-27T01:29:06.153Z,0.10
2019-06-27T01:30:06.146Z,0.10
2019-06-27T01:31:06.143Z,0.10
2019-06-27T01:32:06.153Z,0.10
2019-06-27T01:33:06.135Z,0.10
2019-06-27T01:34:06.126Z,0.10
2019-06-27T01:35:06.132Z,0.10
2019-06-27T01:36:06.120Z,0.10
2019-06-27T01:37:06.114Z,0.10
2019-06-27T01:38:06.110Z,0.10
2019-06-27T01:39:06.120Z,0.10
2019-06-27T01:40:06.101Z,0.10
2019-06-27T01:41:06.099Z,0.10
2019-06-27T01:42:06.093Z,0.10
2019-06-27T01:43:06.091Z,0.10
2019-06-27T01:44:06.085Z,0.10
2019-06-27T01:45:06.078Z,0.10
2019-06-27T01:46:06.073Z,0.10
2019-06-27T01:47:06.068Z,0.10
2019-06-27T01:48:06.063Z,0.10
2019-06-27T01:49:06.065Z,0.10
2019-06-27T01:50:06.054Z,0.10
2019-06-27T01:51:06.047Z,0.10
2019-06-27T01:52:06.048Z,0.10
2019-06-27T01:53:06.041Z,0.10
2019-06-27T01:54:06.040Z,0.10
2019-06-27T01:55:06.025Z,0.10
2019-06-27T01:56:06.024Z,0.10
2019-06-27T01:57:06.025Z,0.10
2019-06-27T01:58:06.025Z,0.10
2019-06-27T01:59:06.010Z,0.10
2019-06-27T02:00:06.009Z,0.10
2019-06-27T02:01:06.006Z,0.10
2019-06-27T02:02:05.995Z,0.10
2019-06-27T02:03:05.994Z,0.10
2019-06-27T02:04:05.991Z,0.10
2019-06-27T02:05:05.992Z,0.10
2019-06-27T02:06:05.974Z,0.10
2019-06-27T02:07:05.997Z,0.10
2019-06-27T02:08:05.972Z,0.10
2019-06-27T02:09:05.969Z,0.10
2019-06-27T02:10:05.966Z,0.10
2019-06-27T02:11:05.955Z,0.10
2019-06-27T02:12:05.949Z,0.10
2019-06-27T02:13:05.945Z,0.10
2019-06-27T02:14:05.945Z,0.10
2019-06-27T02:15:05.942Z,0.10
2019-06-27T02:16:05.935Z,0.10
2019-06-27T02:17:05.922Z,0.10
2019-06-27T02:18:05.925Z,0.10
2019-06-27T02:19:05.920Z,0.10
2019-06-27T02:20:05.917Z,0.10
2019-06-27T02:21:05.914Z,0.10
2019-06-27T02:22:05.901Z,0.10
2019-06-27T02:23:05.901Z,0.10
2019-06-27T02:24:05.904Z,0.10
2019-06-27T02:25:05.894Z,0.10
2019-06-27T02:26:05.883Z,0.10
2019-06-27T02:27:05.878Z,0.10
2019-06-27T02:28:05.874Z,0.10
2019-06-27T02:29:05.877Z,0.10
2019-06-27T02:30:05.885Z,0.10
2019-06-27T02:31:05.869Z,0.20
2019-06-27T02:32:05.854Z,0.10
2019-06-27T02:33:05.852Z,0.10
2019-06-27T02:34:07.052Z,0.10
2019-06-27T02:35:05.850Z,0.10
2019-06-27T02:36:05.844Z,0.10
2019-06-27T02:37:05.839Z,0.10
2019-06-27T02:38:05.834Z,0.10
2019-06-27T02:39:05.831Z,0.10
2019-06-27T02:40:05.820Z,0.10
2019-06-27T02:41:05.817Z,0.10
2019-06-27T02:42:05.806Z,0.10
2019-06-27T02:43:05.882Z,0.10
2019-06-27T02:44:05.806Z,0.10
2019-06-27T02:45:05.794Z,0.10
2019-06-27T02:46:05.805Z,0.10
2019-06-27T02:47:05.783Z,0.10
2019-06-27T02:48:05.788Z,0.10
2019-06-27T02:49:05.777Z,0.10
2019-06-27T02:50:05.776Z,0.10
2019-06-27T02:51:05.768Z,0.10
2019-06-27T02:52:05.763Z,0.10
2019-06-27T02:53:05.755Z,0.10
2019-06-27T02:54:05.755Z,0.10
2019-06-27T02:55:05.749Z,0.10
2019-06-27T02:56:05.748Z,0.10
2019-06-27T02:57:05.743Z,0.00
2019-06-27T02:58:27.901Z,0.10
2019-06-27T02:59:05.727Z,0.10
2019-06-27T03:00:05.729Z,0.10
2019-06-27T03:01:05.721Z,0.10
2019-06-27T03:02:05.719Z,0.10
2019-06-27T03:03:05.718Z,0.00
2019-06-27T03:04:05.706Z,0.00
2019-06-27T03:05:05.703Z,0.10
2019-06-27T03:06:05.697Z,0.10
2019-06-27T03:07:05.690Z,0.10
2019-06-27T03:08:05.692Z,0.10
2019-06-27T03:09:05.683Z,0.10
2019-06-27T03:10:05.679Z,0.10
2019-06-27T03:11:05.678Z,0.10
2019-06-27T03:12:05.679Z,0.10
2019-06-27T03:13:05.665Z,0.10
2019-06-27T03:14:05.663Z,0.10
2019-06-27T03:15:05.651Z,0.10
2019-06-27T03:16:05.657Z,0.10
2019-06-27T03:17:05.646Z,0.10
2019-06-27T03:18:05.645Z,0.10
2019-06-27T03:19:05.653Z,0.10
2019-06-27T03:20:05.633Z,0.10
2019-06-27T03:21:05.629Z,0.10
2019-06-27T03:22:06.182Z,0.10
2019-06-27T03:23:05.631Z,0.10
2019-06-27T03:24:05.618Z,0.10
2019-06-27T03:25:05.610Z,0.10
2019-06-27T03:26:05.608Z,0.10
2019-06-27T03:27:05.613Z,0.10
2019-06-27T03:28:05.597Z,0.10
2019-06-27T03:29:05.593Z,0.10
2019-06-27T03:30:05.592Z,0.10
2019-06-27T03:31:05.581Z,0.10
2019-06-27T03:32:05.580Z,0.10
2019-06-27T03:33:05.586Z,0.10
2019-06-27T03:34:05.579Z,0.10
2019-06-27T03:35:05.588Z,0.10
2019-06-27T03:36:05.564Z,0.10
2019-06-27T03:37:05.558Z,0.10
2019-06-27T03:38:05.547Z,0.10
2019-06-27T03:39:05.555Z,0.10
2019-06-27T03:40:05.544Z,0.00
2019-06-27T03:41:05.533Z,0.10
2019-06-27T03:42:05.531Z,0.10
2019-06-27T03:43:05.526Z,0.00
2019-06-27T03:44:05.519Z,0.00
2019-06-27T03:45:05.521Z,0.10
2019-06-27T03:46:05.513Z,0.10
2019-06-27T03:47:05.507Z,0.10
2019-06-27T03:48:05.502Z,0.00
2019-06-27T03:49:05.498Z,0.10
2019-06-27T03:50:05.489Z,0.10
2019-06-27T03:51:05.484Z,0.10
2019-06-27T03:52:05.485Z,0.10
2019-06-27T03:53:05.487Z,0.10
2019-06-27T03:54:05.486Z,0.10
2019-06-27T03:55:05.553Z,0.10
2019-06-27T03:56:05.482Z,0.10
2019-06-27T03:57:05.467Z,0.10
2019-06-27T03:58:05.458Z,0.10
2019-06-27T03:59:12.227Z,0.10
2019-06-27T04:00:05.496Z,0.10
2019-06-27T04:01:05.488Z,0.10
2019-06-27T04:02:05.430Z,0.10
2019-06-27T04:03:05.443Z,0.10
2019-06-27T04:04:05.425Z,0.10
2019-06-27T04:05:05.426Z,0.00
2019-06-27T04:06:05.424Z,0.10
2019-06-27T04:07:05.414Z,0.10
2019-06-27T04:08:05.410Z,0.10
2019-06-27T04:09:05.400Z,0.10
2019-06-27T04:10:05.396Z,0.10
2019-06-27T04:11:05.391Z,0.10
2019-06-27T04:12:05.402Z,0.10
2019-06-27T04:13:05.392Z,0.10
2019-06-27T04:14:05.394Z,0.10
2019-06-27T04:15:05.376Z,0.10
2019-06-27T04:16:05.374Z,0.10
2019-06-27T04:17:05.362Z,0.10
2019-06-27T04:18:05.360Z,0.10
2019-06-27T04:19:05.360Z,0.10
2019-06-27T04:20:05.358Z,0.10
2019-06-27T04:21:05.350Z,0.10
2019-06-27T04:22:05.342Z,0.00
2019-06-27T04:23:05.342Z,0.00
2019-06-27T04:24:05.339Z,0.10
2019-06-27T04:25:05.329Z,0.10
2019-06-27T04:26:05.323Z,0.10
2019-06-27T04:27:05.318Z,0.10
2019-06-27T04:28:05.314Z,0.10
2019-06-27T04:29:05.314Z,0.10
2019-06-27T04:30:05.311Z,0.10
2019-06-27T04:31:05.305Z,0.10
2019-06-27T04:32:05.299Z,0.10
2019-06-27T04:33:05.298Z,0.10
2019-06-27T04:34:05.291Z,0.10
2019-06-27T04:35:05.300Z,0.10
2019-06-27T04:36:05.279Z,0.10
2019-06-27T04:37:05.270Z,0.10
2019-06-27T04:38:05.277Z,0.10
2019-06-27T04:39:05.272Z,0.10
2019-06-27T04:40:05.257Z,0.00
2019-06-27T04:41:05.260Z,0.10
2019-06-27T04:42:05.259Z,0.00
2019-06-27T04:43:06.285Z,0.10
2019-06-27T04:44:05.247Z,0.10
2019-06-27T04:45:05.244Z,0.10
2019-06-27T04:46:05.230Z,0.10
2019-06-27T04:47:05.226Z,0.10
2019-06-27T04:48:05.244Z,0.10
2019-06-27T04:49:05.220Z,0.10
2019-06-27T04:50:05.231Z,0.00
2019-06-27T04:51:05.247Z,0.10
2019-06-27T04:52:05.205Z,0.10
2019-06-27T04:53:05.205Z,0.10
2019-06-27T04:54:05.200Z,0.10
2019-06-27T04:55:05.205Z,0.10
2019-06-27T04:56:05.190Z,0.10
2019-06-27T04:57:05.183Z,0.10
2019-06-27T04:58:05.179Z,0.10
2019-06-27T04:59:05.188Z,0.10
2019-06-27T05:00:05.176Z,0.10
2019-06-27T05:01:05.170Z,0.10
2019-06-27T05:02:05.163Z,0.00
2019-06-27T05:03:05.153Z,0.10
2019-06-27T05:04:05.153Z,0.00
2019-06-27T05:05:05.151Z,0.00
2019-06-27T05:06:05.146Z,0.10
2019-06-27T05:07:05.148Z,0.10
2019-06-27T05:08:05.141Z,0.10
2019-06-27T05:09:05.136Z,0.10
2019-06-27T05:10:05.127Z,0.10
2019-06-27T05:11:05.125Z,0.10
2019-06-27T05:12:05.118Z,0.00
2019-06-27T05:13:05.112Z,0.10
2019-06-27T05:14:05.108Z,0.10
2019-06-27T05:15:05.104Z,0.10
2019-06-27T05:16:05.101Z,0.10
2019-06-27T05:17:05.101Z,0.10
2019-06-27T05:18:05.094Z,0.00
2019-06-27T05:19:05.091Z,0.10
2019-06-27T05:20:05.082Z,0.00
2019-06-27T05:21:05.080Z,0.10
2019-06-27T05:22:05.074Z,0.10
2019-06-27T05:23:05.066Z,0.10
2019-06-27T05:24:05.062Z,0.10
2019-06-27T05:25:05.058Z,0.10
2019-06-27T05:26:05.058Z,0.10
2019-06-27T05:27:05.054Z,0.10
2019-06-27T05:28:05.046Z,0.00
2019-06-27T05:29:05.042Z,0.10
2019-06-27T05:30:10.075Z,0.00
2019-06-27T05:31:05.036Z,0.10
2019-06-27T05:32:05.032Z,0.10
2019-06-27T05:33:05.026Z,0.10
2019-06-27T05:34:05.022Z,0.10
2019-06-27T05:35:05.016Z,0.10
2019-06-27T05:36:05.012Z,0.10
2019-06-27T05:37:05.026Z,0.10
2019-06-27T05:38:05.007Z,0.10
2019-06-27T05:39:05.002Z,0.10
2019-06-27T05:40:05.001Z,0.10
2019-06-27T05:41:04.991Z,0.00
2019-06-27T05:42:04.989Z,0.10
2019-06-27T05:43:04.985Z,0.10
2019-06-27T05:44:04.989Z,0.10
2019-06-27T05:45:04.974Z,0.10
2019-06-27T05:46:04.974Z,0.00
2019-06-27T05:47:04.965Z,0.00
2019-06-27T05:48:04.967Z,0.10
2019-06-27T05:49:04.960Z,0.00
2019-06-27T05:50:04.957Z,0.10
2019-06-27T05:51:04.954Z,0.10
2019-06-27T05:52:04.949Z,0.10
2019-06-27T05:53:04.954Z,0.10
2019-06-27T05:54:04.940Z,0.10
2019-06-27T05:55:04.942Z,0.00
2019-06-27T05:56:04.947Z,0.10
2019-06-27T05:57:04.927Z,0.00
2019-06-27T05:58:04.929Z,0.00
2019-06-27T05:59:04.926Z,0.00
2019-06-27T06:00:04.944Z,0.00
2019-06-27T06:01:04.919Z,0.00
2019-06-27T06:02:04.919Z,0.00
2019-06-27T06:03:04.912Z,0.00
2019-06-27T06:04:04.905Z,0.00
2019-06-27T06:05:04.909Z,0.00
2019-06-27T06:06:04.914Z,0.00
2019-06-27T06:07:04.905Z,0.00
2019-06-27T06:08:04.903Z,0.00
2019-06-27T06:09:04.902Z,0.00
2019-06-27T06:10:04.914Z,0.00
2019-06-27T06:11:04.896Z,0.00
2019-06-27T06:12:04.897Z,0.00
2019-06-27T06:13:04.904Z,0.00
2019-06-27T06:14:04.895Z,0.00
2019-06-27T06:15:04.895Z,0.00
2019-06-27T06:16:04.895Z,0.00
2019-06-27T06:17:04.906Z,0.00
2019-06-27T06:18:04.888Z,0.00
2019-06-27T06:19:04.889Z,0.00
2019-06-27T06:20:04.903Z,0.00
2019-06-27T06:21:04.891Z,0.00
2019-06-27T06:22:04.892Z,0.00
2019-06-27T06:23:04.890Z,0.00
2019-06-27T06:24:04.887Z,0.00
2019-06-27T06:25:04.900Z,0.00
2019-06-27T06:26:05.060Z,0.00
2019-06-27T06:27:04.891Z,0.00
2019-06-27T06:28:04.886Z,0.00
2019-06-27T06:29:04.888Z,0.00
2019-06-27T06:30:04.928Z,0.00
2019-06-27T06:31:04.887Z,0.00
2019-06-27T06:32:04.897Z,0.00
2019-06-27T06:33:04.893Z,0.00
2019-06-27T06:34:04.895Z,0.00
2019-06-27T06:35:04.890Z,0.00
2019-06-27T06:36:04.893Z,0.00
2019-06-27T06:37:08.051Z,0.00
2019-06-27T06:38:04.889Z,0.00
2019-06-27T06:39:04.888Z,0.00
2019-06-27T06:40:04.946Z,0.00
2019-06-27T06:41:04.894Z,0.00
2019-06-27T06:42:04.892Z,0.00
2019-06-27T06:43:04.968Z,0.00
2019-06-27T06:44:04.907Z,0.00
2019-06-27T06:45:04.901Z,0.10
2019-06-27T06:46:04.897Z,0.00
2019-06-27T06:47:04.906Z,0.00
2019-06-27T06:48:04.924Z,0.00
2019-06-27T06:49:04.917Z,0.00
2019-06-27T06:50:04.903Z,0.10
2019-06-27T06:51:04.903Z,0.00
2019-06-27T06:52:04.905Z,0.00
2019-06-27T06:53:04.910Z,0.00
2019-06-27T06:54:04.905Z,0.00
2019-06-27T06:55:04.915Z,0.00
2019-06-27T06:56:04.914Z,0.00
2019-06-27T06:57:04.913Z,0.00
2019-06-27T06:58:04.918Z,0.00
2019-06-27T06:59:04.925Z,0.00
2019-06-27T07:00:04.913Z,0.00
2019-06-27T07:01:04.927Z,0.10
2019-06-27T07:02:04.929Z,0.10
2019-06-27T07:03:04.928Z,0.10
2019-06-27T07:04:04.933Z,0.10
2019-06-27T07:05:04.925Z,0.10
2019-06-27T07:06:04.934Z,0.10
2019-06-27T07:07:04.936Z,0.10
2019-06-27T07:08:04.943Z,0.10
2019-06-27T07:09:04.948Z,0.10
2019-06-27T07:10:04.948Z,0.10
2019-06-27T07:11:04.956Z,0.10
2019-06-27T07:12:04.955Z,0.10
2019-06-27T07:13:04.960Z,0.10
2019-06-27T07:14:04.956Z,0.10
2019-06-27T07:15:04.959Z,0.10
2019-06-27T07:16:05.011Z,0.10
2019-06-27T07:17:04.976Z,0.10
2019-06-27T07:18:04.978Z,0.10
2019-06-27T07:19:04.978Z,0.10
2019-06-27T07:20:04.985Z,0.10
2019-06-27T07:21:04.984Z,0.10
2019-06-27T07:22:04.993Z,0.10
2019-06-27T07:23:04.994Z,0.10
2019-06-27T07:24:04.997Z,0.10
2019-06-27T07:25:05.000Z,0.10
2019-06-27T07:26:05.008Z,0.10
2019-06-27T07:27:05.009Z,0.20
2019-06-27T07:28:05.016Z,0.10
2019-06-27T07:29:05.021Z,0.10
2019-06-27T07:30:05.021Z,0.10
2019-06-27T07:31:17.151Z,0.20
2019-06-27T07:32:05.037Z,0.20
2019-06-27T07:33:05.031Z,0.20
2019-06-27T07:34:05.041Z,0.20
2019-06-27T07:35:05.045Z,0.20
2019-06-27T07:36:05.046Z,0.20
2019-06-27T07:37:05.050Z,0.20
2019-06-27T07:38:05.057Z,0.20
2019-06-27T07:39:05.063Z,0.20
2019-06-27T07:40:05.063Z,0.20
2019-06-27T07:41:05.080Z,0.20
2019-06-27T07:42:05.069Z,0.20
2019-06-27T07:43:05.077Z,0.20
2019-06-27T07:44:05.082Z,0.20
2019-06-27T07:45:05.086Z,0.20
2019-06-27T07:46:05.131Z,0.20
2019-06-27T07:47:05.102Z,0.20
2019-06-27T07:48:05.106Z,0.20
2019-06-27T07:49:05.108Z,0.30
2019-06-27T07:50:05.108Z,0.30
2019-06-27T07:51:05.147Z,0.30
2019-06-27T07:52:05.133Z,0.30
2019-06-27T07:53:05.128Z,0.30
2019-06-27T07:54:05.132Z,0.30
2019-06-27T07:55:05.143Z,0.30
2019-06-27T07:56:05.142Z,0.30
2019-06-27T07:57:05.150Z,0.30
2019-06-27T07:58:05.150Z,0.30
2019-06-27T07:59:05.160Z,0.30
2019-06-27T08:00:05.216Z,0.30
2019-06-27T08:01:05.175Z,0.30
2019-06-27T08:02:05.171Z,0.30
2019-06-27T08:03:05.195Z,0.40
2019-06-27T08:04:05.201Z,0.40
2019-06-27T08:05:05.196Z,0.40
2019-06-27T08:06:05.199Z,0.40
2019-06-27T08:07:05.200Z,0.40
2019-06-27T08:08:05.210Z,0.40
2019-06-27T08:09:05.215Z,0.40
2019-06-27T08:10:05.217Z,0.40
2019-06-27T08:11:05.227Z,0.40
2019-06-27T08:12:05.227Z,0.40
2019-06-27T08:13:05.234Z,0.40
2019-06-27T08:14:05.243Z,0.40
2019-06-27T08:15:05.245Z,0.50
2019-06-27T08:16:05.259Z,0.50
2019-06-27T08:17:05.254Z,0.50
2019-06-27T08:18:05.257Z,0.50
2019-06-27T08:19:05.263Z,0.50
2019-06-27T08:20:05.276Z,0.50
2019-06-27T08:21:05.286Z,0.50
2019-06-27T08:22:05.280Z,0.60
2019-06-27T08:23:05.293Z,0.60
2019-06-27T08:24:05.300Z,0.60
2019-06-27T08:25:05.298Z,0.50
2019-06-27T08:26:05.303Z,0.50
2019-06-27T08:27:05.313Z,0.40
2019-06-27T08:28:05.325Z,0.40
2019-06-27T08:29:05.325Z,0.30
2019-06-27T08:30:08.269Z,0.30
2019-06-27T08:31:05.331Z,0.20
2019-06-27T08:32:05.338Z,0.20
2019-06-27T08:33:05.346Z,0.20
2019-06-27T08:34:05.354Z,0.10
2019-06-27T08:35:05.356Z,0.10
2019-06-27T08:36:05.448Z,0.10
2019-06-27T08:37:05.376Z,0.10
2019-06-27T08:38:05.374Z,0.10
2019-06-27T08:39:05.373Z,0.10
2019-06-27T08:40:05.381Z,0.10
2019-06-27T08:41:05.468Z,0.10
2019-06-27T08:42:05.392Z,0.00
2019-06-27T08:43:05.394Z,0.10
2019-06-27T08:44:05.401Z,0.00
2019-06-27T08:45:05.459Z,0.00
2019-06-27T08:46:05.410Z,0.00
2019-06-27T08:47:05.559Z,0.00
2019-06-27T08:48:05.473Z,0.00
2019-06-27T08:49:05.969Z,0.00
2019-06-27T08:50:05.578Z,0.00
2019-06-27T08:51:05.427Z,0.00
2019-06-27T08:52:05.426Z,0.00
2019-06-27T08:53:05.427Z,0.00
2019-06-27T08:54:05.426Z,0.00
2019-06-27T08:55:05.431Z,0.00
2019-06-27T08:56:05.434Z,0.00
2019-06-27T08:57:05.438Z,0.00
2019-06-27T08:58:05.437Z,0.00
2019-06-27T08:59:05.436Z,0.00
2019-06-27T09:00:05.438Z,0.00
2019-06-27T09:01:05.491Z,0.00
2019-06-27T09:02:09.214Z,0.00
2019-06-27T09:03:05.462Z,0.00
2019-06-27T09:04:05.455Z,0.00
2019-06-27T09:05:05.457Z,0.00
2019-06-27T09:06:05.455Z,0.00
2019-06-27T09:07:05.467Z,0.00
2019-06-27T09:08:05.465Z,0.00
2019-06-27T09:09:05.473Z,0.00
2019-06-27T09:10:05.475Z,0.00
2019-06-27T09:11:05.474Z,0.00
2019-06-27T09:12:05.481Z,0.00
2019-06-27T09:13:05.490Z,0.00
2019-06-27T09:14:05.494Z,0.00
2019-06-27T09:15:05.493Z,0.00
2019-06-27T09:16:05.500Z,0.00
2019-06-27T09:17:05.500Z,0.10
2019-06-27T09:18:05.508Z,0.10
2019-06-27T09:19:05.512Z,0.10
2019-06-27T09:20:05.515Z,0.10
2019-06-27T09:21:05.519Z,0.10
2019-06-27T09:22:05.519Z,0.10
2019-06-27T09:23:05.530Z,0.10
2019-06-27T09:24:05.535Z,0.10
2019-06-27T09:25:05.537Z,0.20
2019-06-27T09:26:05.542Z,0.10
2019-06-27T09:27:05.549Z,0.20
2019-06-27T09:28:05.551Z,0.20
2019-06-27T09:29:05.577Z,0.20
2019-06-27T09:30:05.572Z,0.30
2019-06-27T09:31:05.575Z,0.30
2019-06-27T09:32:05.603Z,0.40
2019-06-27T09:33:05.647Z,0.40
2019-06-27T09:34:05.587Z,0.40
2019-06-27T09:35:05.594Z,0.50
2019-06-27T09:36:05.597Z,0.60
2019-06-27T09:37:05.605Z,0.60
2019-06-27T09:38:05.616Z,0.70
2019-06-27T09:39:05.620Z,0.70
2019-06-27T09:40:05.625Z,0.70
2019-06-27T09:41:05.632Z,0.80
2019-06-27T09:42:05.641Z,0.80
2019-06-27T09:43:05.658Z,0.80
2019-06-27T09:44:05.655Z,0.80
2019-06-27T09:45:05.707Z,0.80
2019-06-27T09:46:05.683Z,0.80
2019-06-27T09:47:05.677Z,0.80
2019-06-27T09:48:05.689Z,0.70
2019-06-27T09:49:05.692Z,0.80
2019-06-27T09:50:05.701Z,0.80
2019-06-27T09:51:05.716Z,0.80
2019-06-27T09:52:05.722Z,0.70
2019-06-27T09:53:05.731Z,0.80
2019-06-27T09:54:05.731Z,0.80
2019-06-27T09:55:05.732Z,0.80
2019-06-27T09:56:05.749Z,0.90
2019-06-27T09:57:05.747Z,0.90
2019-06-27T09:58:05.766Z,0.90
2019-06-27T09:59:05.767Z,0.90
2019-06-27T10:00:05.777Z,0.90
2019-06-27T10:01:06.330Z,1.00
2019-06-27T10:02:05.792Z,1.00
2019-06-27T10:03:05.794Z,1.10
2019-06-27T10:04:05.803Z,1.00
2019-06-27T10:05:05.815Z,1.10
2019-06-27T10:06:05.829Z,1.20
2019-06-27T10:07:05.831Z,1.20
2019-06-27T10:08:05.838Z,1.20
2019-06-27T10:09:05.913Z,1.30
2019-06-27T10:10:05.878Z,1.30
2019-06-27T10:11:05.867Z,1.40
2019-06-27T10:12:05.882Z,1.40
2019-06-27T10:13:05.887Z,1.50
2019-06-27T10:14:05.894Z,1.50
2019-06-27T10:15:05.899Z,1.50
2019-06-27T10:16:05.915Z,1.60
2019-06-27T10:17:05.920Z,1.60
2019-06-27T10:18:05.933Z,1.70
2019-06-27T10:19:05.939Z,1.60
2019-06-27T10:20:05.949Z,1.60
2019-06-27T10:21:05.958Z,1.70
2019-06-27T10:22:05.964Z,1.80
2019-06-27T10:23:05.968Z,1.80
2019-06-27T10:24:05.991Z,1.70
2019-06-27T10:25:05.990Z,1.90
2019-06-27T10:26:05.998Z,1.90
2019-06-27T10:27:06.011Z,1.90
2019-06-27T10:28:06.013Z,2.10
2019-06-27T10:29:06.024Z,2.10
2019-06-27T10:30:06.030Z,2.10
2019-06-27T10:31:06.046Z,2.20
2019-06-27T10:32:06.061Z,2.10
2019-06-27T10:33:06.065Z,2.20
2019-06-27T10:34:06.084Z,2.20
2019-06-27T10:35:06.088Z,2.20
2019-06-27T10:36:06.103Z,2.20
2019-06-27T10:37:06.113Z,2.20
2019-06-27T10:38:06.112Z,2.30
2019-06-27T10:39:06.123Z,2.30
2019-06-27T10:40:06.137Z,2.40
2019-06-27T10:41:06.145Z,2.20
2019-06-27T10:42:06.151Z,2.30
2019-06-27T10:43:06.166Z,2.30
2019-06-27T10:44:06.173Z,2.20
2019-06-27T10:45:06.183Z,2.30
2019-06-27T10:46:06.189Z,2.30
2019-06-27T10:47:06.203Z,2.20
2019-06-27T10:48:06.210Z,2.30
2019-06-27T10:49:06.259Z,2.50
2019-06-27T10:50:06.247Z,2.50
2019-06-27T10:51:06.248Z,2.60
2019-06-27T10:52:06.260Z,2.60
2019-06-27T10:53:06.263Z,2.50
2019-06-27T10:54:06.281Z,2.60
2019-06-27T10:55:06.281Z,2.60
2019-06-27T10:56:06.291Z,2.60
2019-06-27T10:57:06.301Z,2.60
2019-06-27T10:58:06.310Z,2.70
2019-06-27T10:59:06.317Z,2.60
2019-06-27T11:00:06.416Z,2.60
2019-06-27T11:01:06.397Z,2.50
2019-06-27T11:02:06.347Z,2.50
2019-06-27T11:03:15.443Z,2.50
2019-06-27T11:04:06.367Z,2.50
2019-06-27T11:05:06.375Z,2.40
2019-06-27T11:06:06.383Z,2.50
2019-06-27T11:07:06.398Z,2.50
2019-06-27T11:08:06.408Z,2.40
2019-06-27T11:09:06.489Z,2.40
2019-06-27T11:10:06.425Z,2.50
2019-06-27T11:11:06.436Z,2.50
2019-06-27T11:12:06.445Z,2.40
2019-06-27T11:13:06.467Z,2.50
2019-06-27T11:14:06.464Z,2.30
2019-06-27T11:15:06.475Z,2.50
2019-06-27T11:16:06.488Z,2.50
2019-06-27T11:17:06.503Z,2.50
2019-06-27T11:18:06.513Z,2.60
2019-06-27T11:19:06.539Z,2.60
2019-06-27T11:20:06.519Z,2.60
2019-06-27T11:21:06.537Z,2.60
2019-06-27T11:22:06.545Z,2.70
2019-06-27T11:23:06.554Z,2.80
2019-06-27T11:24:06.565Z,2.70
2019-06-27T11:25:06.581Z,2.80
2019-06-27T11:26:09.404Z,2.80
2019-06-27T11:27:06.609Z,2.90
2019-06-27T11:28:09.265Z,2.80
2019-06-27T11:29:06.608Z,2.90
2019-06-27T11:30:07.034Z,2.90
2019-06-27T11:31:06.646Z,2.90
2019-06-27T11:32:06.644Z,2.90
2019-06-27T11:33:06.660Z,2.80
2019-06-27T11:34:06.662Z,2.90
2019-06-27T11:35:06.677Z,2.90
2019-06-27T11:36:06.683Z,2.90
2019-06-27T11:37:06.692Z,2.90
2019-06-27T11:38:06.713Z,3.10
2019-06-27T11:39:06.730Z,3.00
2019-06-27T11:40:06.728Z,2.90
2019-06-27T11:41:06.737Z,3.10
2019-06-27T11:42:06.747Z,2.90
2019-06-27T11:43:06.803Z,3.00
2019-06-27T11:44:06.764Z,3.10
2019-06-27T11:45:06.776Z,3.10
2019-06-27T11:46:08.892Z,3.10
2019-06-27T11:47:06.806Z,3.30
2019-06-27T11:48:06.813Z,3.30
2019-06-27T11:49:06.820Z,3.50
2019-06-27T11:50:06.828Z,3.60
2019-06-27T11:51:06.838Z,3.40
2019-06-27T11:52:06.843Z,3.40
2019-06-27T11:53:06.855Z,3.50
2019-06-27T11:54:06.883Z,3.50
2019-06-27T11:55:06.885Z,3.60
2019-06-27T11:56:06.891Z,3.50
2019-06-27T11:57:06.901Z,3.40
2019-06-27T11:58:06.911Z,3.30
2019-06-27T11:59:06.916Z,3.40
2019-06-27T12:00:06.941Z,3.20
2019-06-27T12:01:06.943Z,3.10
2019-06-27T12:02:06.955Z,3.10
2019-06-27T12:03:06.952Z,3.00
2019-06-27T12:04:06.975Z,3.00
2019-06-27T12:05:06.974Z,3.00
2019-06-27T12:06:06.997Z,2.90
2019-06-27T12:07:06.990Z,2.80
2019-06-27T12:08:10.824Z,2.70
2019-06-27T12:09:07.014Z,2.60
2019-06-27T12:10:07.026Z,2.60
2019-06-27T12:11:07.041Z,2.50
2019-06-27T12:12:07.057Z,2.60
2019-06-27T12:13:07.060Z,2.40
2019-06-27T12:14:07.069Z,2.50
2019-06-27T12:15:07.092Z,2.50
2019-06-27T12:16:07.086Z,2.60
2019-06-27T12:17:07.111Z,2.50
2019-06-27T12:18:07.117Z,2.50
2019-06-27T12:19:07.118Z,2.30
2019-06-27T12:20:07.131Z,2.20
2019-06-27T12:21:07.138Z,2.20
2019-06-27T12:22:07.147Z,2.10
2019-06-27T12:23:07.167Z,2.10
2019-06-27T12:24:07.162Z,2.00
2019-06-27T12:25:07.174Z,2.10
2019-06-27T12:26:07.185Z,2.00
2019-06-27T12:27:07.194Z,2.00
2019-06-27T12:28:07.213Z,2.00
2019-06-27T12:29:07.204Z,1.90
2019-06-27T12:30:07.230Z,1.90
2019-06-27T12:31:19.828Z,1.90
2019-06-27T12:32:07.250Z,1.90
2019-06-27T12:33:07.246Z,1.90
2019-06-27T12:34:07.889Z,1.80
2019-06-27T12:35:07.264Z,1.80
2019-06-27T12:36:07.273Z,1.80
2019-06-27T12:37:07.289Z,1.80
2019-06-27T12:38:07.297Z,1.80
2019-06-27T12:39:07.324Z,1.70
2019-06-27T12:40:07.321Z,1.60
2019-06-27T12:41:07.325Z,1.60
2019-06-27T12:42:07.331Z,1.60
2019-06-27T12:43:07.361Z,1.50
2019-06-27T12:44:07.345Z,1.50
2019-06-27T12:45:07.382Z,1.50
2019-06-27T12:46:07.376Z,1.40
2019-06-27T12:47:07.374Z,1.40
2019-06-27T12:48:07.864Z,1.40
2019-06-27T12:49:07.398Z,1.40
2019-06-27T12:50:07.448Z,1.30
2019-06-27T12:51:07.414Z,1.40
2019-06-27T12:52:07.424Z,1.40
2019-06-27T12:53:07.432Z,1.30
2019-06-27T12:54:07.440Z,1.30
2019-06-27T12:55:07.450Z,1.30
2019-06-27T12:56:07.452Z,1.30
2019-06-27T12:57:07.488Z,1.30
2019-06-27T12:58:07.475Z,1.30
2019-06-27T12:59:07.483Z,1.30
2019-06-27T13:00:09.033Z,1.30
2019-06-27T13:01:07.510Z,1.30
2019-06-27T13:02:11.258Z,1.20
2019-06-27T13:03:07.520Z,1.20
2019-06-27T13:04:22.392Z,1.20
2019-06-27T13:05:07.535Z,1.20
2019-06-27T13:06:07.542Z,1.10
2019-06-27T13:07:07.554Z,1.10
2019-06-27T13:08:07.556Z,1.00
2019-06-27T13:09:07.564Z,1.00
2019-06-27T13:10:07.584Z,0.90
2019-06-27T13:11:07.577Z,1.00
2019-06-27T13:12:07.598Z,1.00
2019-06-27T13:13:07.597Z,1.10
2019-06-27T13:14:07.607Z,1.40
2019-06-27T13:15:07.735Z,2.50
2019-06-27T13:16:07.622Z,4.70
2019-06-27T13:17:07.626Z,9.50
2019-06-27T13:18:07.639Z,16.90